Hermiston, OR

5:00 PM PDT on September 30, 2014 (GMT -0700)
Tri-Cities | Change Station
CLOSE
Current Station
Airport
Location: Pasco,
Elevation: 407 ft
Nearby Weather Stations

Elev 407 ft 46.26 °N, 119.12 °W | Updated 6 hours ago

Partly Cloudy
Partly Cloudy
68 °F
Feels Like 68 °F
N
18
Wind Variable Wind from WSW
Gusts 29 mph

Today
High -- | Low -- °F
--% Chance of Precip.
Yesterday
High -- | Low -- °F
Precip. -- in
6:54 AM 6:38 PM
Waxing Crescent, 41% visible
Pressure 29.98 in
Visibility 10.0 miles
Clouds Clear
Dew Point 39 °F
Humidity 34%
Rainfall 0.00 in
Snow Depth 0 in , 0 in , 1 in
UV 4 out of 12
Pollen 4.70 out of 12
Air Quality Not available.
Flu Activity Not available.
METAR KPSC 301753Z 27010KT 10SM CLR 20/05 A2999 RMK AO2 SLP152 T02000050 10200 20106 51006

More Conditions Fewer Conditions

Pressure 29.98 in
Visibility 10.0 miles
Clouds Clear
Dew Point 39 °F
Humidity 34%
Rainfall 0.00 in
Snow Depth 0 in , 0 in , 1 in
UV 4 out of 12
Pollen 4.70 out of 12
Air Quality Not available.
Flu Activity Not available.
METAR KPSC 301753Z 27010KT 10SM CLR 20/05 A2999 RMK AO2 SLP152 T02000050 10200 20106 51006

More Conditions Fewer Conditions

10-Day Weather Forecast

Almanac

Astronomy

Sep. 30, 2014 Rise Set
Actual Time 6:54 AM PDT 6:38 PM PDT
Civil Twilight 6:24 AM PDT 7:08 PM PDT
Nautical Twilight 5:49 AM PDT 7:43 PM PDT
Astronomical Twilight 5:14 AM PDT 8:18 PM PDT
Moon 1:21 PM PDT (9/30) 11:00 PM PDT (9/30)
Length of Visible Light 12h 43m
Length of Day
11h 44m
Tomorrow will be 3m 12s shorter.
Waxing Crescent, 41% of the Moon is Illuminated
Today
Waxing Crescent
Oct 1
First Quarter
Oct 8
Full
Oct 15
Last Quarter
Oct 23
New

Today's Extremes

State Highs State Lows

Community

WunderPhotos

Upload Photos

1,757,783 photos uploaded!

Nearby

Snow Depth

Station Depth Elevation
Holland Meadows 0 in 4900 ft
Clackamas Lake 0 in 3400 ft
Clear Lake 1 in 3500 ft
Peavine Ridge 0 in 3500 ft
Schneider Meadows 0 in 5400 ft

Earthquake Activity

City Distance Mag. Time & Date
No recent earthquake activity has been reported nearby.
Minimum magnitude displayed is 2.5.

Coastal Water Temperatures

Place Temperature
No Stations Reporting

Nearby Weather Stations